sensor_id;sensor_type;location;lat;lon;timestamp;temperature;humidity
41628;DHT22;27321;50.816;6.054;2022-09-09T00:09:18;18.30;71.00
41628;DHT22;27321;50.816;6.054;2022-09-09T00:12:34;18.30;71.20
41628;DHT22;27321;50.816;6.054;2022-09-09T00:15:41;18.30;71.20
41628;DHT22;27321;50.816;6.054;2022-09-09T00:18:49;18.30;71.40
41628;DHT22;27321;50.816;6.054;2022-09-09T00:25:17;18.20;71.50
41628;DHT22;27321;50.816;6.054;2022-09-09T00:28:23;18.20;71.80
41628;DHT22;27321;50.816;6.054;2022-09-09T00:31:28;18.20;71.80
41628;DHT22;27321;50.816;6.054;2022-09-09T00:34:30;18.10;71.70
41628;DHT22;27321;50.816;6.054;2022-09-09T00:37:32;18.10;71.90
41628;DHT22;27321;50.816;6.054;2022-09-09T00:40:37;18.10;72.00
41628;DHT22;27321;50.816;6.054;2022-09-09T00:43:41;18.10;72.30
41628;DHT22;27321;50.816;6.054;2022-09-09T00:56:36;18.10;72.90
41628;DHT22;27321;50.816;6.054;2022-09-09T01:09:25;18.00;73.00
41628;DHT22;27321;50.816;6.054;2022-09-09T01:12:40;17.90;73.20
41628;DHT22;27321;50.816;6.054;2022-09-09T01:15:50;17.90;73.40
41628;DHT22;27321;50.816;6.054;2022-09-09T01:18:55;17.80;73.50
41628;DHT22;27321;50.816;6.054;2022-09-09T01:21:59;17.80;73.40
41628;DHT22;27321;50.816;6.054;2022-09-09T01:25:15;17.80;73.70
41628;DHT22;27321;50.816;6.054;2022-09-09T01:28:48;17.90;73.70
41628;DHT22;27321;50.816;6.054;2022-09-09T01:31:57;17.90;73.70
41628;DHT22;27321;50.816;6.054;2022-09-09T01:35:00;17.80;73.90
41628;DHT22;27321;50.816;6.054;2022-09-09T01:38:03;17.80;74.00
41628;DHT22;27321;50.816;6.054;2022-09-09T01:41:04;17.90;74.30
41628;DHT22;27321;50.816;6.054;2022-09-09T01:44:15;17.90;74.30
41628;DHT22;27321;50.816;6.054;2022-09-09T01:47:19;17.90;74.00
41628;DHT22;27321;50.816;6.054;2022-09-09T01:50:43;17.90;74.30
41628;DHT22;27321;50.816;6.054;2022-09-09T01:53:44;17.90;74.30
41628;DHT22;27321;50.816;6.054;2022-09-09T02:00:14;17.90;74.30
41628;DHT22;27321;50.816;6.054;2022-09-09T02:03:19;17.90;74.50
41628;DHT22;27321;50.816;6.054;2022-09-09T02:06:34;17.90;74.40
41628;DHT22;27321;50.816;6.054;2022-09-09T02:10:02;17.90;74.60
41628;DHT22;27321;50.816;6.054;2022-09-09T02:13:16;17.90;74.50
41628;DHT22;27321;50.816;6.054;2022-09-09T02:16:26;17.90;74.40
41628;DHT22;27321;50.816;6.054;2022-09-09T02:19:32;17.90;74.70
41628;DHT22;27321;50.816;6.054;2022-09-09T02:22:43;17.90;74.70
41628;DHT22;27321;50.816;6.054;2022-09-09T02:25:46;18.00;74.70
41628;DHT22;27321;50.816;6.054;2022-09-09T02:28:55;18.00;74.40
41628;DHT22;27321;50.816;6.054;2022-09-09T02:31:58;18.00;74.60
41628;DHT22;27321;50.816;6.054;2022-09-09T02:35:08;17.90;74.40
41628;DHT22;27321;50.816;6.054;2022-09-09T02:38:12;17.90;74.10
41628;DHT22;27321;50.816;6.054;2022-09-09T02:41:23;17.90;74.70
41628;DHT22;27321;50.816;6.054;2022-09-09T02:44:26;17.90;74.60
41628;DHT22;27321;50.816;6.054;2022-09-09T02:50:52;17.90;74.30
41628;DHT22;27321;50.816;6.054;2022-09-09T02:54:06;17.90;74.20
41628;DHT22;27321;50.816;6.054;2022-09-09T02:57:22;17.90;74.20
41628;DHT22;27321;50.816;6.054;2022-09-09T03:00:25;17.90;74.30
41628;DHT22;27321;50.816;6.054;2022-09-09T03:03:30;17.90;74.00
41628;DHT22;27321;50.816;6.054;2022-09-09T03:06:33;17.90;74.20
41628;DHT22;27321;50.816;6.054;2022-09-09T03:09:43;18.00;74.30
41628;DHT22;27321;50.816;6.054;2022-09-09T03:12:45;18.00;73.90
41628;DHT22;27321;50.816;6.054;2022-09-09T03:15:47;18.00;73.90
41628;DHT22;27321;50.816;6.054;2022-09-09T03:18:51;18.00;73.80
41628;DHT22;27321;50.816;6.054;2022-09-09T03:21:54;18.00;73.90
41628;DHT22;27321;50.816;6.054;2022-09-09T03:24:55;18.00;73.70
41628;DHT22;27321;50.816;6.054;2022-09-09T03:27:57;18.00;73.50
41628;DHT22;27321;50.816;6.054;2022-09-09T03:30:59;18.00;73.70
41628;DHT22;27321;50.816;6.054;2022-09-09T03:34:08;17.90;73.60
41628;DHT22;27321;50.816;6.054;2022-09-09T03:37:10;17.90;73.70
41628;DHT22;27321;50.816;6.054;2022-09-09T03:40:11;17.90;73.70
41628;DHT22;27321;50.816;6.054;2022-09-09T03:43:12;17.80;73.90
41628;DHT22;27321;50.816;6.054;2022-09-09T03:46:13;17.90;74.00
41628;DHT22;27321;50.816;6.054;2022-09-09T03:49:14;17.80;73.80
41628;DHT22;27321;50.816;6.054;2022-09-09T03:52:16;17.80;73.80
41628;DHT22;27321;50.816;6.054;2022-09-09T03:55:18;17.80;74.00
41628;DHT22;27321;50.816;6.054;2022-09-09T03:58:19;17.80;74.00
41628;DHT22;27321;50.816;6.054;2022-09-09T04:01:20;17.80;73.90
41628;DHT22;27321;50.816;6.054;2022-09-09T04:04:22;17.80;74.00
41628;DHT22;27321;50.816;6.054;2022-09-09T04:07:23;17.90;73.70
41628;DHT22;27321;50.816;6.054;2022-09-09T04:10:24;17.80;73.80
41628;DHT22;27321;50.816;6.054;2022-09-09T04:13:27;17.80;73.80
41628;DHT22;27321;50.816;6.054;2022-09-09T04:16:33;17.80;73.70
41628;DHT22;27321;50.816;6.054;2022-09-09T04:19:36;17.80;73.30
41628;DHT22;27321;50.816;6.054;2022-09-09T04:22:38;17.90;73.40
41628;DHT22;27321;50.816;6.054;2022-09-09T04:25:47;17.90;73.30
41628;DHT22;27321;50.816;6.054;2022-09-09T04:28:49;17.80;73.30
41628;DHT22;27321;50.816;6.054;2022-09-09T04:31:53;17.80;73.30
41628;DHT22;27321;50.816;6.054;2022-09-09T04:34:53;17.80;72.90
41628;DHT22;27321;50.816;6.054;2022-09-09T04:37:58;17.80;73.40
41628;DHT22;27321;50.816;6.054;2022-09-09T04:41:00;17.90;73.10
41628;DHT22;27321;50.816;6.054;2022-09-09T04:44:02;17.90;73.10
41628;DHT22;27321;50.816;6.054;2022-09-09T04:47:03;17.90;73.00
41628;DHT22;27321;50.816;6.054;2022-09-09T04:50:04;17.90;73.10
41628;DHT22;27321;50.816;6.054;2022-09-09T04:53:09;17.90;72.90
41628;DHT22;27321;50.816;6.054;2022-09-09T04:56:13;17.80;73.10
41628;DHT22;27321;50.816;6.054;2022-09-09T04:59:19;17.80;73.00
41628;DHT22;27321;50.816;6.054;2022-09-09T05:02:26;17.80;73.00
41628;DHT22;27321;50.816;6.054;2022-09-09T05:05:27;17.70;72.90
41628;DHT22;27321;50.816;6.054;2022-09-09T05:08:29;17.70;72.90
41628;DHT22;27321;50.816;6.054;2022-09-09T05:11:31;17.60;73.30
41628;DHT22;27321;50.816;6.054;2022-09-09T05:14:38;17.60;72.90
41628;DHT22;27321;50.816;6.054;2022-09-09T05:17:40;17.70;73.00
41628;DHT22;27321;50.816;6.054;2022-09-09T05:20:41;17.60;72.90
41628;DHT22;27321;50.816;6.054;2022-09-09T05:23:44;17.60;72.80
41628;DHT22;27321;50.816;6.054;2022-09-09T05:26:45;17.60;72.80
41628;DHT22;27321;50.816;6.054;2022-09-09T05:29:46;17.60;72.90
41628;DHT22;27321;50.816;6.054;2022-09-09T05:32:48;17.50;72.70
41628;DHT22;27321;50.816;6.054;2022-09-09T05:35:55;17.50;72.80
41628;DHT22;27321;50.816;6.054;2022-09-09T05:38:57;17.50;72.70
41628;DHT22;27321;50.816;6.054;2022-09-09T05:42:03;17.60;72.70
41628;DHT22;27321;50.816;6.054;2022-09-09T05:45:08;17.50;72.50
41628;DHT22;27321;50.816;6.054;2022-09-09T05:48:10;17.50;72.50
41628;DHT22;27321;50.816;6.054;2022-09-09T05:51:11;17.60;73.00
41628;DHT22;27321;50.816;6.054;2022-09-09T05:54:19;17.50;72.50
41628;DHT22;27321;50.816;6.054;2022-09-09T05:57:23;17.60;72.40
41628;DHT22;27321;50.816;6.054;2022-09-09T06:00:25;17.50;72.70
41628;DHT22;27321;50.816;6.054;2022-09-09T06:03:55;17.50;72.40
41628;DHT22;27321;50.816;6.054;2022-09-09T06:06:58;17.50;72.60
41628;DHT22;27321;50.816;6.054;2022-09-09T06:09:59;17.50;72.90
41628;DHT22;27321;50.816;6.054;2022-09-09T06:13:09;17.50;72.30
41628;DHT22;27321;50.816;6.054;2022-09-09T06:16:28;17.50;72.30
41628;DHT22;27321;50.816;6.054;2022-09-09T06:19:50;17.50;71.80
41628;DHT22;27321;50.816;6.054;2022-09-09T06:23:27;17.50;72.00
41628;DHT22;27321;50.816;6.054;2022-09-09T06:26:46;17.50;71.80
41628;DHT22;27321;50.816;6.054;2022-09-09T06:34:33;17.60;72.00
41628;DHT22;27321;50.816;6.054;2022-09-09T06:37:45;17.60;71.70
41628;DHT22;27321;50.816;6.054;2022-09-09T06:41:09;17.70;71.10
41628;DHT22;27321;50.816;6.054;2022-09-09T06:44:33;17.70;71.20
41628;DHT22;27321;50.816;6.054;2022-09-09T06:47:44;17.80;71.10
41628;DHT22;27321;50.816;6.054;2022-09-09T06:54:47;18.00;70.60
41628;DHT22;27321;50.816;6.054;2022-09-09T06:57:56;18.10;70.00
41628;DHT22;27321;50.816;6.054;2022-09-09T07:02:13;18.10;69.90
41628;DHT22;27321;50.816;6.054;2022-09-09T07:14:45;18.30;68.90
41628;DHT22;27321;50.816;6.054;2022-09-09T07:18:01;18.40;68.90
41628;DHT22;27321;50.816;6.054;2022-09-09T07:21:25;18.50;69.00
41628;DHT22;27321;50.816;6.054;2022-09-09T07:24:34;18.50;68.90
41628;DHT22;27321;50.816;6.054;2022-09-09T07:27:50;18.60;68.20
41628;DHT22;27321;50.816;6.054;2022-09-09T07:30:57;18.50;68.30
41628;DHT22;27321;50.816;6.054;2022-09-09T07:34:00;18.50;68.30
41628;DHT22;27321;50.816;6.054;2022-09-09T07:37:02;18.50;68.40
41628;DHT22;27321;50.816;6.054;2022-09-09T07:40:04;18.60;68.30
41628;DHT22;27321;50.816;6.054;2022-09-09T07:43:12;18.70;67.90
41628;DHT22;27321;50.816;6.054;2022-09-09T07:46:27;18.80;68.20
41628;DHT22;27321;50.816;6.054;2022-09-09T07:51:08;18.80;67.70
41628;DHT22;27321;50.816;6.054;2022-09-09T07:57:49;18.80;67.80
41628;DHT22;27321;50.816;6.054;2022-09-09T08:00:54;18.80;67.20
41628;DHT22;27321;50.816;6.054;2022-09-09T08:03:56;18.80;67.20
41628;DHT22;27321;50.816;6.054;2022-09-09T08:07:03;18.80;67.00
41628;DHT22;27321;50.816;6.054;2022-09-09T08:10:08;18.80;67.00
41628;DHT22;27321;50.816;6.054;2022-09-09T08:13:11;18.80;67.00
41628;DHT22;27321;50.816;6.054;2022-09-09T08:16:14;18.90;66.70
41628;DHT22;27321;50.816;6.054;2022-09-09T08:19:19;18.90;65.90
41628;DHT22;27321;50.816;6.054;2022-09-09T08:22:21;18.90;65.80
41628;DHT22;27321;50.816;6.054;2022-09-09T08:25:24;19.00;65.90
41628;DHT22;27321;50.816;6.054;2022-09-09T08:28:25;19.00;65.30
41628;DHT22;27321;50.816;6.054;2022-09-09T08:31:34;19.00;65.30
41628;DHT22;27321;50.816;6.054;2022-09-09T08:34:40;19.00;65.10
41628;DHT22;27321;50.816;6.054;2022-09-09T08:37:48;19.10;65.60
41628;DHT22;27321;50.816;6.054;2022-09-09T08:40:49;19.10;65.60
41628;DHT22;27321;50.816;6.054;2022-09-09T08:43:58;19.10;65.30
41628;DHT22;27321;50.816;6.054;2022-09-09T08:50:29;19.10;65.30
41628;DHT22;27321;50.816;6.054;2022-09-09T08:53:42;19.10;65.30
41628;DHT22;27321;50.816;6.054;2022-09-09T08:56:48;19.10;65.20
41628;DHT22;27321;50.816;6.054;2022-09-09T08:59:49;19.20;65.40
41628;DHT22;27321;50.816;6.054;2022-09-09T09:06:09;19.30;64.50
41628;DHT22;27321;50.816;6.054;2022-09-09T09:09:26;19.30;64.90
41628;DHT22;27321;50.816;6.054;2022-09-09T09:12:45;19.40;64.90
41628;DHT22;27321;50.816;6.054;2022-09-09T09:15:52;19.50;64.90
41628;DHT22;27321;50.816;6.054;2022-09-09T09:18:57;19.50;64.60
41628;DHT22;27321;50.816;6.054;2022-09-09T09:22:06;19.60;64.70
41628;DHT22;27321;50.816;6.054;2022-09-09T09:25:17;19.70;63.10
41628;DHT22;27321;50.816;6.054;2022-09-09T09:28:24;19.70;63.20
41628;DHT22;27321;50.816;6.054;2022-09-09T09:31:30;19.80;63.50
41628;DHT22;27321;50.816;6.054;2022-09-09T09:34:32;19.90;63.50
41628;DHT22;27321;50.816;6.054;2022-09-09T09:37:33;20.00;63.00
41628;DHT22;27321;50.816;6.054;2022-09-09T09:40:37;20.10;62.30
41628;DHT22;27321;50.816;6.054;2022-09-09T09:43:53;20.10;61.90
41628;DHT22;27321;50.816;6.054;2022-09-09T09:47:08;20.10;61.40
41628;DHT22;27321;50.816;6.054;2022-09-09T09:50:17;20.20;61.50
41628;DHT22;27321;50.816;6.054;2022-09-09T09:53:27;20.20;60.70
41628;DHT22;27321;50.816;6.054;2022-09-09T09:56:31;20.10;60.40
41628;DHT22;27321;50.816;6.054;2022-09-09T09:59:35;20.10;60.80
41628;DHT22;27321;50.816;6.054;2022-09-09T10:02:39;20.00;61.00
41628;DHT22;27321;50.816;6.054;2022-09-09T10:05:45;20.10;60.50
41628;DHT22;27321;50.816;6.054;2022-09-09T10:08:47;20.00;61.10
41628;DHT22;27321;50.816;6.054;2022-09-09T10:15:07;19.80;61.70
41628;DHT22;27321;50.816;6.054;2022-09-09T10:28:34;19.80;65.20
41628;DHT22;27321;50.816;6.054;2022-09-09T10:41:16;20.10;64.70
41628;DHT22;27321;50.816;6.054;2022-09-09T10:51:25;20.30;64.60
41628;DHT22;27321;50.816;6.054;2022-09-09T10:55:13;20.30;64.00
41628;DHT22;27321;50.816;6.054;2022-09-09T10:57:58;20.30;64.80
41628;DHT22;27321;50.816;6.054;2022-09-09T11:01:02;20.20;65.20
41628;DHT22;27321;50.816;6.054;2022-09-09T11:04:13;20.20;65.80
41628;DHT22;27321;50.816;6.054;2022-09-09T11:07:22;20.20;66.10
41628;DHT22;27321;50.816;6.054;2022-09-09T11:13:52;20.30;65.30
41628;DHT22;27321;50.816;6.054;2022-09-09T11:17:06;20.40;64.70
41628;DHT22;27321;50.816;6.054;2022-09-09T11:20:13;20.50;64.50
41628;DHT22;27321;50.816;6.054;2022-09-09T11:23:15;20.60;64.30
41628;DHT22;27321;50.816;6.054;2022-09-09T11:26:21;20.70;63.30
41628;DHT22;27321;50.816;6.054;2022-09-09T11:35:56;21.00;61.80
41628;DHT22;27321;50.816;6.054;2022-09-09T11:42:44;21.00;62.30
41628;DHT22;27321;50.816;6.054;2022-09-09T11:45:51;21.00;62.30
41628;DHT22;27321;50.816;6.054;2022-09-09T11:48:58;21.00;62.90
41628;DHT22;27321;50.816;6.054;2022-09-09T11:55:28;20.70;61.80
41628;DHT22;27321;50.816;6.054;2022-09-09T11:58:36;20.60;62.80
41628;DHT22;27321;50.816;6.054;2022-09-09T12:01:40;20.60;63.00
41628;DHT22;27321;50.816;6.054;2022-09-09T12:05:28;20.60;63.30
41628;DHT22;27321;50.816;6.054;2022-09-09T12:08:15;20.60;64.00
41628;DHT22;27321;50.816;6.054;2022-09-09T12:11:25;20.80;63.60
41628;DHT22;27321;50.816;6.054;2022-09-09T12:14:38;20.90;62.60
41628;DHT22;27321;50.816;6.054;2022-09-09T12:17:44;20.90;62.90
41628;DHT22;27321;50.816;6.054;2022-09-09T12:24:13;21.20;62.90
41628;DHT22;27321;50.816;6.054;2022-09-09T12:27:23;21.30;61.30
41628;DHT22;27321;50.816;6.054;2022-09-09T12:34:46;21.30;61.70
41628;DHT22;27321;50.816;6.054;2022-09-09T12:40:37;21.10;62.20
41628;DHT22;27321;50.816;6.054;2022-09-09T12:43:39;21.00;64.70
41628;DHT22;27321;50.816;6.054;2022-09-09T12:46:42;20.90;66.00
41628;DHT22;27321;50.816;6.054;2022-09-09T12:49:45;20.80;67.60
41628;DHT22;27321;50.816;6.054;2022-09-09T12:52:50;20.70;67.50
41628;DHT22;27321;50.816;6.054;2022-09-09T12:55:55;20.80;68.40
41628;DHT22;27321;50.816;6.054;2022-09-09T12:58:59;20.80;69.10
41628;DHT22;27321;50.816;6.054;2022-09-09T13:02:01;20.90;69.70
41628;DHT22;27321;50.816;6.054;2022-09-09T13:05:15;21.00;70.30
41628;DHT22;27321;50.816;6.054;2022-09-09T13:08:21;21.10;70.60
41628;DHT22;27321;50.816;6.054;2022-09-09T13:11:23;21.20;70.00
41628;DHT22;27321;50.816;6.054;2022-09-09T13:14:36;21.30;69.20
41628;DHT22;27321;50.816;6.054;2022-09-09T13:17:40;21.20;67.70
41628;DHT22;27321;50.816;6.054;2022-09-09T13:20:45;21.20;66.90
41628;DHT22;27321;50.816;6.054;2022-09-09T13:23:48;21.20;66.50
41628;DHT22;27321;50.816;6.054;2022-09-09T13:26:54;21.20;65.30
41628;DHT22;27321;50.816;6.054;2022-09-09T13:29:58;21.20;65.10
41628;DHT22;27321;50.816;6.054;2022-09-09T13:33:03;21.20;64.30
41628;DHT22;27321;50.816;6.054;2022-09-09T13:36:27;21.20;64.20
41628;DHT22;27321;50.816;6.054;2022-09-09T13:39:36;21.40;63.60
41628;DHT22;27321;50.816;6.054;2022-09-09T13:42:38;21.50;64.20
41628;DHT22;27321;50.816;6.054;2022-09-09T13:45:40;21.60;63.40
41628;DHT22;27321;50.816;6.054;2022-09-09T13:48:41;21.60;63.80
41628;DHT22;27321;50.816;6.054;2022-09-09T13:54:49;21.90;63.20
41628;DHT22;27321;50.816;6.054;2022-09-09T14:00:53;22.00;62.10
41628;DHT22;27321;50.816;6.054;2022-09-09T14:03:54;22.10;61.00
41628;DHT22;27321;50.816;6.054;2022-09-09T14:06:55;22.10;61.60
41628;DHT22;27321;50.816;6.054;2022-09-09T14:09:56;22.20;62.10
41628;DHT22;27321;50.816;6.054;2022-09-09T14:12:57;22.20;60.00
41628;DHT22;27321;50.816;6.054;2022-09-09T14:15:58;22.10;59.60
41628;DHT22;27321;50.816;6.054;2022-09-09T14:18:58;22.10;60.50
41628;DHT22;27321;50.816;6.054;2022-09-09T14:22:00;22.00;61.20
41628;DHT22;27321;50.816;6.054;2022-09-09T14:25:02;21.90;61.60
41628;DHT22;27321;50.816;6.054;2022-09-09T14:28:03;21.80;61.60
41628;DHT22;27321;50.816;6.054;2022-09-09T14:31:05;21.90;61.40
41628;DHT22;27321;50.816;6.054;2022-09-09T14:34:05;21.80;61.90
41628;DHT22;27321;50.816;6.054;2022-09-09T14:37:07;21.60;61.90
41628;DHT22;27321;50.816;6.054;2022-09-09T14:40:08;21.60;62.40
41628;DHT22;27321;50.816;6.054;2022-09-09T14:43:09;21.60;62.20
41628;DHT22;27321;50.816;6.054;2022-09-09T14:46:12;21.50;63.10
41628;DHT22;27321;50.816;6.054;2022-09-09T14:49:14;21.40;63.20
41628;DHT22;27321;50.816;6.054;2022-09-09T14:52:15;21.40;63.40
41628;DHT22;27321;50.816;6.054;2022-09-09T14:55:16;21.40;64.20
41628;DHT22;27321;50.816;6.054;2022-09-09T14:58:17;21.60;63.90
41628;DHT22;27321;50.816;6.054;2022-09-09T15:01:18;21.50;63.20
41628;DHT22;27321;50.816;6.054;2022-09-09T15:04:20;21.40;63.30
41628;DHT22;27321;50.816;6.054;2022-09-09T15:07:22;21.30;64.10
41628;DHT22;27321;50.816;6.054;2022-09-09T15:10:23;21.20;64.70
41628;DHT22;27321;50.816;6.054;2022-09-09T15:13:24;21.10;64.90
41628;DHT22;27321;50.816;6.054;2022-09-09T15:16:26;21.10;64.80
41628;DHT22;27321;50.816;6.054;2022-09-09T15:19:28;21.10;64.90
41628;DHT22;27321;50.816;6.054;2022-09-09T15:22:29;21.10;65.20
41628;DHT22;27321;50.816;6.054;2022-09-09T15:25:30;21.10;64.80
41628;DHT22;27321;50.816;6.054;2022-09-09T15:28:32;21.10;65.10
41628;DHT22;27321;50.816;6.054;2022-09-09T15:31:38;21.00;65.50
41628;DHT22;27321;50.816;6.054;2022-09-09T15:34:39;21.10;65.80
41628;DHT22;27321;50.816;6.054;2022-09-09T15:37:40;21.10;65.70
41628;DHT22;27321;50.816;6.054;2022-09-09T15:40:41;21.10;65.40
41628;DHT22;27321;50.816;6.054;2022-09-09T15:43:49;21.10;65.10
41628;DHT22;27321;50.816;6.054;2022-09-09T15:46:52;21.00;65.40
41628;DHT22;27321;50.816;6.054;2022-09-09T15:49:56;20.90;65.30
41628;DHT22;27321;50.816;6.054;2022-09-09T15:52:57;20.90;65.30
41628;DHT22;27321;50.816;6.054;2022-09-09T15:55:58;20.80;65.00
41628;DHT22;27321;50.816;6.054;2022-09-09T15:58:59;20.80;65.20
41628;DHT22;27321;50.816;6.054;2022-09-09T16:02:02;20.70;65.50
41628;DHT22;27321;50.816;6.054;2022-09-09T16:05:05;20.70;65.60
41628;DHT22;27321;50.816;6.054;2022-09-09T16:08:06;20.80;65.90
41628;DHT22;27321;50.816;6.054;2022-09-09T16:11:07;20.80;65.90
41628;DHT22;27321;50.816;6.054;2022-09-09T16:14:09;20.80;65.90
41628;DHT22;27321;50.816;6.054;2022-09-09T16:17:11;20.70;65.70
41628;DHT22;27321;50.816;6.054;2022-09-09T16:20:12;20.60;66.10
41628;DHT22;27321;50.816;6.054;2022-09-09T16:23:13;20.50;66.40
41628;DHT22;27321;50.816;6.054;2022-09-09T16:26:15;20.50;67.50
41628;DHT22;27321;50.816;6.054;2022-09-09T16:29:19;20.50;68.10
41628;DHT22;27321;50.816;6.054;2022-09-09T16:32:21;20.50;68.90
41628;DHT22;27321;50.816;6.054;2022-09-09T16:35:22;20.50;69.00
41628;DHT22;27321;50.816;6.054;2022-09-09T16:38:23;20.30;69.40
41628;DHT22;27321;50.816;6.054;2022-09-09T16:41:25;20.40;69.60
41628;DHT22;27321;50.816;6.054;2022-09-09T16:44:28;20.30;69.80
41628;DHT22;27321;50.816;6.054;2022-09-09T16:47:29;20.30;69.40
41628;DHT22;27321;50.816;6.054;2022-09-09T16:50:30;20.20;69.50
41628;DHT22;27321;50.816;6.054;2022-09-09T16:53:31;20.20;69.40
41628;DHT22;27321;50.816;6.054;2022-09-09T16:56:37;20.10;69.50
41628;DHT22;27321;50.816;6.054;2022-09-09T16:59:39;20.00;69.50
41628;DHT22;27321;50.816;6.054;2022-09-09T17:02:39;20.00;70.10
41628;DHT22;27321;50.816;6.054;2022-09-09T17:05:40;20.00;70.60
41628;DHT22;27321;50.816;6.054;2022-09-09T17:08:42;20.00;71.00
41628;DHT22;27321;50.816;6.054;2022-09-09T17:11:43;20.00;70.90
41628;DHT22;27321;50.816;6.054;2022-09-09T17:14:44;20.00;71.20
41628;DHT22;27321;50.816;6.054;2022-09-09T17:17:46;20.00;71.10
41628;DHT22;27321;50.816;6.054;2022-09-09T17:20:49;20.00;71.30
41628;DHT22;27321;50.816;6.054;2022-09-09T17:23:50;19.90;71.10
41628;DHT22;27321;50.816;6.054;2022-09-09T17:26:56;20.00;71.40
41628;DHT22;27321;50.816;6.054;2022-09-09T17:29:57;20.00;71.40
41628;DHT22;27321;50.816;6.054;2022-09-09T17:32:59;19.90;71.60
41628;DHT22;27321;50.816;6.054;2022-09-09T17:36:01;19.90;72.30
41628;DHT22;27321;50.816;6.054;2022-09-09T17:39:03;19.70;72.60
41628;DHT22;27321;50.816;6.054;2022-09-09T17:42:04;19.60;72.70
41628;DHT22;27321;50.816;6.054;2022-09-09T17:45:09;19.50;72.50
41628;DHT22;27321;50.816;6.054;2022-09-09T17:48:10;19.50;72.90
41628;DHT22;27321;50.816;6.054;2022-09-09T17:51:12;19.40;73.30
41628;DHT22;27321;50.816;6.054;2022-09-09T17:54:16;19.30;73.80
41628;DHT22;27321;50.816;6.054;2022-09-09T17:57:18;19.30;74.10
41628;DHT22;27321;50.816;6.054;2022-09-09T18:00:19;19.20;74.10
41628;DHT22;27321;50.816;6.054;2022-09-09T18:03:20;19.20;74.40
41628;DHT22;27321;50.816;6.054;2022-09-09T18:06:22;19.10;74.40
41628;DHT22;27321;50.816;6.054;2022-09-09T18:09:26;19.10;74.50
41628;DHT22;27321;50.816;6.054;2022-09-09T18:12:28;19.10;74.60
41628;DHT22;27321;50.816;6.054;2022-09-09T18:15:30;19.10;74.80
41628;DHT22;27321;50.816;6.054;2022-09-09T18:18:31;19.00;74.00
41628;DHT22;27321;50.816;6.054;2022-09-09T18:21:33;19.00;74.20
41628;DHT22;27321;50.816;6.054;2022-09-09T18:24:34;18.90;73.90
41628;DHT22;27321;50.816;6.054;2022-09-09T18:27:35;18.80;74.70
41628;DHT22;27321;50.816;6.054;2022-09-09T18:30:39;18.70;74.80
41628;DHT22;27321;50.816;6.054;2022-09-09T18:33:41;18.60;75.00
41628;DHT22;27321;50.816;6.054;2022-09-09T18:36:46;18.60;75.10
41628;DHT22;27321;50.816;6.054;2022-09-09T18:39:48;18.60;74.90
41628;DHT22;27321;50.816;6.054;2022-09-09T18:42:49;18.50;75.10
41628;DHT22;27321;50.816;6.054;2022-09-09T18:45:50;18.50;75.00
41628;DHT22;27321;50.816;6.054;2022-09-09T18:48:55;18.50;75.20
41628;DHT22;27321;50.816;6.054;2022-09-09T18:51:58;18.50;75.10
41628;DHT22;27321;50.816;6.054;2022-09-09T18:54:59;18.40;75.50
41628;DHT22;27321;50.816;6.054;2022-09-09T18:58:03;18.40;75.40
41628;DHT22;27321;50.816;6.054;2022-09-09T19:01:07;18.40;75.50
41628;DHT22;27321;50.816;6.054;2022-09-09T19:04:10;18.30;75.50
41628;DHT22;27321;50.816;6.054;2022-09-09T19:07:11;18.30;75.50
41628;DHT22;27321;50.816;6.054;2022-09-09T19:10:12;18.30;75.50
41628;DHT22;27321;50.816;6.054;2022-09-09T19:13:14;18.30;75.50
41628;DHT22;27321;50.816;6.054;2022-09-09T19:16:15;18.30;75.00
41628;DHT22;27321;50.816;6.054;2022-09-09T19:19:18;18.20;74.70
41628;DHT22;27321;50.816;6.054;2022-09-09T19:22:20;18.20;75.00
41628;DHT22;27321;50.816;6.054;2022-09-09T19:25:22;18.10;75.20
41628;DHT22;27321;50.816;6.054;2022-09-09T19:28:24;18.20;75.20
41628;DHT22;27321;50.816;6.054;2022-09-09T19:31:26;18.10;75.10
41628;DHT22;27321;50.816;6.054;2022-09-09T19:34:30;18.10;75.10
41628;DHT22;27321;50.816;6.054;2022-09-09T19:37:31;18.10;75.20
41628;DHT22;27321;50.816;6.054;2022-09-09T19:40:34;18.10;75.50
41628;DHT22;27321;50.816;6.054;2022-09-09T19:43:35;18.10;75.10
41628;DHT22;27321;50.816;6.054;2022-09-09T19:46:36;18.10;75.20
41628;DHT22;27321;50.816;6.054;2022-09-09T19:49:38;18.10;75.40
41628;DHT22;27321;50.816;6.054;2022-09-09T19:52:40;18.10;75.40
41628;DHT22;27321;50.816;6.054;2022-09-09T19:55:41;18.10;75.40
41628;DHT22;27321;50.816;6.054;2022-09-09T19:58:42;18.10;75.20
41628;DHT22;27321;50.816;6.054;2022-09-09T20:01:45;18.10;75.50
41628;DHT22;27321;50.816;6.054;2022-09-09T20:04:45;18.10;75.30
41628;DHT22;27321;50.816;6.054;2022-09-09T20:07:47;18.10;75.60
41628;DHT22;27321;50.816;6.054;2022-09-09T20:10:51;18.10;75.70
41628;DHT22;27321;50.816;6.054;2022-09-09T20:13:53;18.10;75.70
41628;DHT22;27321;50.816;6.054;2022-09-09T20:16:55;18.10;75.50
41628;DHT22;27321;50.816;6.054;2022-09-09T20:19:55;18.10;75.70
41628;DHT22;27321;50.816;6.054;2022-09-09T20:22:56;18.10;75.10
41628;DHT22;27321;50.816;6.054;2022-09-09T20:26:03;18.20;75.30
41628;DHT22;27321;50.816;6.054;2022-09-09T20:29:07;18.20;74.60
41628;DHT22;27321;50.816;6.054;2022-09-09T20:32:11;18.10;74.80
41628;DHT22;27321;50.816;6.054;2022-09-09T20:35:12;18.10;74.60
41628;DHT22;27321;50.816;6.054;2022-09-09T20:38:16;18.10;74.50
41628;DHT22;27321;50.816;6.054;2022-09-09T20:41:16;18.10;74.60
41628;DHT22;27321;50.816;6.054;2022-09-09T20:44:21;18.10;74.30
41628;DHT22;27321;50.816;6.054;2022-09-09T20:47:23;18.10;74.60
41628;DHT22;27321;50.816;6.054;2022-09-09T20:50:24;18.00;74.30
41628;DHT22;27321;50.816;6.054;2022-09-09T20:53:25;18.00;74.10
41628;DHT22;27321;50.816;6.054;2022-09-09T20:56:28;18.00;74.30
41628;DHT22;27321;50.816;6.054;2022-09-09T20:59:32;18.00;74.30
41628;DHT22;27321;50.816;6.054;2022-09-09T21:02:35;18.00;74.40
41628;DHT22;27321;50.816;6.054;2022-09-09T21:05:36;18.00;74.30
41628;DHT22;27321;50.816;6.054;2022-09-09T21:08:39;18.00;74.40
41628;DHT22;27321;50.816;6.054;2022-09-09T21:11:40;18.00;74.50
41628;DHT22;27321;50.816;6.054;2022-09-09T21:14:41;18.00;74.20
41628;DHT22;27321;50.816;6.054;2022-09-09T21:17:43;17.90;74.20
41628;DHT22;27321;50.816;6.054;2022-09-09T21:20:44;17.90;74.30
41628;DHT22;27321;50.816;6.054;2022-09-09T21:23:49;17.90;74.30
41628;DHT22;27321;50.816;6.054;2022-09-09T21:26:50;17.80;74.50
41628;DHT22;27321;50.816;6.054;2022-09-09T21:29:52;17.80;74.40
41628;DHT22;27321;50.816;6.054;2022-09-09T21:32:57;17.80;74.20
41628;DHT22;27321;50.816;6.054;2022-09-09T21:36:03;17.80;74.20
41628;DHT22;27321;50.816;6.054;2022-09-09T21:39:05;17.80;74.30